sensor_id;sensor_type;location;lat;lon;timestamp;P1;durP1;ratioP1;P2;durP2;ratioP2
39772;SDS011;25451;51.960;6.250;2023-02-13T00:01:31;25.08;;;9.43;;
39772;SDS011;25451;51.960;6.250;2023-02-13T00:03:56;24.67;;;9.77;;
39772;SDS011;25451;51.960;6.250;2023-02-13T00:06:21;24.63;;;9.47;;
39772;SDS011;25451;51.960;6.250;2023-02-13T00:08:47;27.48;;;9.60;;
39772;SDS011;25451;51.960;6.250;2023-02-13T00:11:12;24.40;;;8.90;;
39772;SDS011;25451;51.960;6.250;2023-02-13T00:13:38;26.07;;;10.07;;
39772;SDS011;25451;51.960;6.250;2023-02-13T00:16:04;27.03;;;9.77;;
39772;SDS011;25451;51.960;6.250;2023-02-13T00:18:32;22.80;;;9.18;;
39772;SDS011;25451;51.960;6.250;2023-02-13T00:21:01;25.63;;;9.65;;
39772;SDS011;25451;51.960;6.250;2023-02-13T00:23:29;23.58;;;9.02;;
39772;SDS011;25451;51.960;6.250;2023-02-13T00:25:55;25.53;;;8.83;;
39772;SDS011;25451;51.960;6.250;2023-02-13T00:28:21;24.05;;;9.27;;
39772;SDS011;25451;51.960;6.250;2023-02-13T00:30:46;26.63;;;9.17;;
39772;SDS011;25451;51.960;6.250;2023-02-13T00:33:12;24.00;;;9.07;;
39772;SDS011;25451;51.960;6.250;2023-02-13T00:35:37;26.53;;;9.33;;
39772;SDS011;25451;51.960;6.250;2023-02-13T00:38:02;27.87;;;10.10;;
39772;SDS011;25451;51.960;6.250;2023-02-13T00:40:27;24.20;;;9.20;;
39772;SDS011;25451;51.960;6.250;2023-02-13T00:42:53;19.83;;;8.30;;
39772;SDS011;25451;51.960;6.250;2023-02-13T00:45:18;23.93;;;9.17;;
39772;SDS011;25451;51.960;6.250;2023-02-13T00:47:43;23.33;;;9.07;;
39772;SDS011;25451;51.960;6.250;2023-02-13T00:50:09;22.45;;;8.77;;
39772;SDS011;25451;51.960;6.250;2023-02-13T00:52:34;23.60;;;9.18;;
39772;SDS011;25451;51.960;6.250;2023-02-13T00:55:00;23.77;;;9.10;;
39772;SDS011;25451;51.960;6.250;2023-02-13T00:57:25;21.90;;;9.10;;
39772;SDS011;25451;51.960;6.250;2023-02-13T00:59:50;24.77;;;8.80;;
39772;SDS011;25451;51.960;6.250;2023-02-13T01:02:16;24.10;;;9.23;;
39772;SDS011;25451;51.960;6.250;2023-02-13T01:04:41;25.88;;;9.63;;
39772;SDS011;25451;51.960;6.250;2023-02-13T01:07:06;24.43;;;9.17;;
39772;SDS011;25451;51.960;6.250;2023-02-13T01:09:32;24.60;;;9.10;;
39772;SDS011;25451;51.960;6.250;2023-02-13T01:11:57;23.00;;;8.87;;
39772;SDS011;25451;51.960;6.250;2023-02-13T01:14:23;23.57;;;8.93;;
39772;SDS011;25451;51.960;6.250;2023-02-13T01:16:49;27.05;;;9.25;;
39772;SDS011;25451;51.960;6.250;2023-02-13T01:19:14;26.33;;;9.53;;
39772;SDS011;25451;51.960;6.250;2023-02-13T01:21:39;23.43;;;9.53;;
39772;SDS011;25451;51.960;6.250;2023-02-13T01:24:06;23.25;;;8.85;;
39772;SDS011;25451;51.960;6.250;2023-02-13T01:26:32;26.87;;;9.10;;
39772;SDS011;25451;51.960;6.250;2023-02-13T01:28:57;23.90;;;9.13;;
39772;SDS011;25451;51.960;6.250;2023-02-13T01:31:22;24.73;;;9.63;;
39772;SDS011;25451;51.960;6.250;2023-02-13T01:33:48;25.35;;;9.50;;
39772;SDS011;25451;51.960;6.250;2023-02-13T01:36:13;23.35;;;9.10;;
39772;SDS011;25451;51.960;6.250;2023-02-13T01:38:39;23.77;;;9.37;;
39772;SDS011;25451;51.960;6.250;2023-02-13T01:41:05;24.00;;;9.25;;
39772;SDS011;25451;51.960;6.250;2023-02-13T01:43:45;24.50;;;9.18;;
39772;SDS011;25451;51.960;6.250;2023-02-13T01:46:26;23.85;;;9.00;;
39772;SDS011;25451;51.960;6.250;2023-02-13T01:48:57;26.25;;;9.57;;
39772;SDS011;25451;51.960;6.250;2023-02-13T01:51:28;22.10;;;9.10;;
39772;SDS011;25451;51.960;6.250;2023-02-13T01:54:07;24.50;;;9.88;;
39772;SDS011;25451;51.960;6.250;2023-02-13T01:56:41;24.05;;;9.40;;
39772;SDS011;25451;51.960;6.250;2023-02-13T01:59:12;24.73;;;9.68;;
39772;SDS011;25451;51.960;6.250;2023-02-13T02:01:41;24.80;;;9.80;;
39772;SDS011;25451;51.960;6.250;2023-02-13T02:04:09;23.08;;;9.85;;
39772;SDS011;25451;51.960;6.250;2023-02-13T02:06:47;24.25;;;9.60;;
39772;SDS011;25451;51.960;6.250;2023-02-13T02:09:16;23.02;;;9.75;;
39772;SDS011;25451;51.960;6.250;2023-02-13T02:11:51;26.37;;;10.17;;
39772;SDS011;25451;51.960;6.250;2023-02-13T02:14:20;23.75;;;9.45;;
39772;SDS011;25451;51.960;6.250;2023-02-13T02:16:45;24.40;;;9.30;;
39772;SDS011;25451;51.960;6.250;2023-02-13T02:19:13;27.73;;;10.13;;
39772;SDS011;25451;51.960;6.250;2023-02-13T02:31:19;28.30;;;10.13;;
39772;SDS011;25451;51.960;6.250;2023-02-13T02:34:22;24.52;;;9.90;;
39772;SDS011;25451;51.960;6.250;2023-02-13T02:37:12;25.67;;;9.27;;
39772;SDS011;25451;51.960;6.250;2023-02-13T02:40:11;22.63;;;9.52;;
39772;SDS011;25451;51.960;6.250;2023-02-13T02:45:55;25.13;;;10.13;;
39772;SDS011;25451;51.960;6.250;2023-02-13T02:48:51;26.30;;;10.25;;
39772;SDS011;25451;51.960;6.250;2023-02-13T02:52:25;23.42;;;9.45;;
39772;SDS011;25451;51.960;6.250;2023-02-13T02:54:39;25.90;;;9.77;;
39772;SDS011;25451;51.960;6.250;2023-02-13T02:57:31;28.95;;;10.20;;
39772;SDS011;25451;51.960;6.250;2023-02-13T03:00:18;27.27;;;10.20;;
39772;SDS011;25451;51.960;6.250;2023-02-13T03:03:08;30.23;;;10.13;;
39772;SDS011;25451;51.960;6.250;2023-02-13T03:05:58;24.23;;;9.53;;
39772;SDS011;25451;51.960;6.250;2023-02-13T03:08:36;26.60;;;10.30;;
39772;SDS011;25451;51.960;6.250;2023-02-13T03:11:21;25.95;;;10.07;;
39772;SDS011;25451;51.960;6.250;2023-02-13T03:14:06;25.70;;;10.10;;
39772;SDS011;25451;51.960;6.250;2023-02-13T03:16:35;23.23;;;9.73;;
39772;SDS011;25451;51.960;6.250;2023-02-13T03:22:44;25.70;;;10.82;;
39772;SDS011;25451;51.960;6.250;2023-02-13T03:25:20;24.23;;;9.57;;
39772;SDS011;25451;51.960;6.250;2023-02-13T03:27:55;28.95;;;9.60;;
39772;SDS011;25451;51.960;6.250;2023-02-13T03:35:44;24.53;;;9.70;;
39772;SDS011;25451;51.960;6.250;2023-02-13T03:41:24;23.80;;;9.10;;
39772;SDS011;25451;51.960;6.250;2023-02-13T03:44:11;24.30;;;10.07;;
39772;SDS011;25451;51.960;6.250;2023-02-13T03:46:44;26.20;;;10.45;;
39772;SDS011;25451;51.960;6.250;2023-02-13T03:49:21;25.23;;;9.93;;
39772;SDS011;25451;51.960;6.250;2023-02-13T03:55:09;23.90;;;10.07;;
39772;SDS011;25451;51.960;6.250;2023-02-13T03:57:59;25.02;;;10.15;;
39772;SDS011;25451;51.960;6.250;2023-02-13T04:00:49;27.58;;;11.10;;
39772;SDS011;25451;51.960;6.250;2023-02-13T04:05:57;25.55;;;10.95;;
39772;SDS011;25451;51.960;6.250;2023-02-13T04:08:28;26.65;;;10.43;;
39772;SDS011;25451;51.960;6.250;2023-02-13T04:10:56;26.10;;;10.67;;
39772;SDS011;25451;51.960;6.250;2023-02-13T04:13:32;25.85;;;9.95;;
39772;SDS011;25451;51.960;6.250;2023-02-13T04:16:05;28.65;;;10.52;;
39772;SDS011;25451;51.960;6.250;2023-02-13T04:18:35;27.58;;;10.25;;
39772;SDS011;25451;51.960;6.250;2023-02-13T04:21:03;26.88;;;10.55;;
39772;SDS011;25451;51.960;6.250;2023-02-13T04:23:29;26.37;;;10.20;;
39772;SDS011;25451;51.960;6.250;2023-02-13T04:25:55;25.83;;;10.55;;
39772;SDS011;25451;51.960;6.250;2023-02-13T04:28:21;29.80;;;10.93;;
39772;SDS011;25451;51.960;6.250;2023-02-13T04:30:46;28.70;;;10.97;;
39772;SDS011;25451;51.960;6.250;2023-02-13T04:33:12;26.13;;;10.00;;
39772;SDS011;25451;51.960;6.250;2023-02-13T04:35:37;25.27;;;10.00;;
39772;SDS011;25451;51.960;6.250;2023-02-13T04:38:03;26.50;;;10.53;;
39772;SDS011;25451;51.960;6.250;2023-02-13T04:40:28;24.53;;;9.90;;
39772;SDS011;25451;51.960;6.250;2023-02-13T04:42:54;23.83;;;9.85;;
39772;SDS011;25451;51.960;6.250;2023-02-13T04:45:19;25.30;;;10.18;;
39772;SDS011;25451;51.960;6.250;2023-02-13T04:47:51;24.70;;;9.83;;
39772;SDS011;25451;51.960;6.250;2023-02-13T04:50:17;23.38;;;10.20;;
39772;SDS011;25451;51.960;6.250;2023-02-13T04:52:43;25.93;;;10.50;;
39772;SDS011;25451;51.960;6.250;2023-02-13T04:55:08;28.33;;;10.00;;
39772;SDS011;25451;51.960;6.250;2023-02-13T04:57:33;24.90;;;9.50;;
39772;SDS011;25451;51.960;6.250;2023-02-13T04:59:59;25.80;;;10.43;;
39772;SDS011;25451;51.960;6.250;2023-02-13T05:02:24;26.50;;;10.43;;
39772;SDS011;25451;51.960;6.250;2023-02-13T05:04:49;27.17;;;10.65;;
39772;SDS011;25451;51.960;6.250;2023-02-13T05:07:15;26.83;;;10.30;;
39772;SDS011;25451;51.960;6.250;2023-02-13T05:09:40;28.90;;;10.10;;
39772;SDS011;25451;51.960;6.250;2023-02-13T05:12:05;25.33;;;9.33;;
39772;SDS011;25451;51.960;6.250;2023-02-13T05:14:31;26.03;;;10.27;;
39772;SDS011;25451;51.960;6.250;2023-02-13T05:16:56;29.50;;;10.50;;
39772;SDS011;25451;51.960;6.250;2023-02-13T05:19:21;24.03;;;10.10;;
39772;SDS011;25451;51.960;6.250;2023-02-13T05:21:46;23.53;;;9.70;;
39772;SDS011;25451;51.960;6.250;2023-02-13T05:24:30;23.50;;;9.48;;
39772;SDS011;25451;51.960;6.250;2023-02-13T05:26:55;24.27;;;10.13;;
39772;SDS011;25451;51.960;6.250;2023-02-13T05:29:21;28.63;;;10.07;;
39772;SDS011;25451;51.960;6.250;2023-02-13T05:34:14;25.48;;;9.55;;
39772;SDS011;25451;51.960;6.250;2023-02-13T05:36:40;28.30;;;10.68;;
39772;SDS011;25451;51.960;6.250;2023-02-13T05:39:05;24.97;;;10.53;;
39772;SDS011;25451;51.960;6.250;2023-02-13T05:41:31;23.57;;;10.03;;
39772;SDS011;25451;51.960;6.250;2023-02-13T05:43:57;22.58;;;10.55;;
39772;SDS011;25451;51.960;6.250;2023-02-13T05:46:22;24.47;;;10.00;;
39772;SDS011;25451;51.960;6.250;2023-02-13T05:48:47;25.70;;;10.97;;
39772;SDS011;25451;51.960;6.250;2023-02-13T05:51:13;26.43;;;10.73;;
39772;SDS011;25451;51.960;6.250;2023-02-13T05:53:38;26.23;;;10.73;;
39772;SDS011;25451;51.960;6.250;2023-02-13T05:56:04;26.13;;;10.57;;
39772;SDS011;25451;51.960;6.250;2023-02-13T05:58:30;28.02;;;11.13;;
39772;SDS011;25451;51.960;6.250;2023-02-13T06:00:56;26.27;;;11.15;;
39772;SDS011;25451;51.960;6.250;2023-02-13T06:03:23;29.75;;;12.15;;
39772;SDS011;25451;51.960;6.250;2023-02-13T06:05:48;30.20;;;12.45;;
39772;SDS011;25451;51.960;6.250;2023-02-13T06:08:14;27.73;;;11.70;;
39772;SDS011;25451;51.960;6.250;2023-02-13T06:10:39;29.77;;;12.10;;
39772;SDS011;25451;51.960;6.250;2023-02-13T06:13:04;27.97;;;12.37;;
39772;SDS011;25451;51.960;6.250;2023-02-13T06:15:30;32.30;;;12.40;;
39772;SDS011;25451;51.960;6.250;2023-02-13T06:17:55;26.67;;;11.57;;
39772;SDS011;25451;51.960;6.250;2023-02-13T06:20:20;29.52;;;12.02;;
39772;SDS011;25451;51.960;6.250;2023-02-13T06:22:51;28.93;;;11.90;;
39772;SDS011;25451;51.960;6.250;2023-02-13T06:25:17;28.30;;;11.43;;
39772;SDS011;25451;51.960;6.250;2023-02-13T06:27:43;28.45;;;11.63;;
39772;SDS011;25451;51.960;6.250;2023-02-13T06:30:09;26.48;;;11.13;;
39772;SDS011;25451;51.960;6.250;2023-02-13T06:32:35;29.57;;;11.33;;
39772;SDS011;25451;51.960;6.250;2023-02-13T06:35:00;27.40;;;11.07;;
39772;SDS011;25451;51.960;6.250;2023-02-13T06:37:26;27.77;;;11.18;;
39772;SDS011;25451;51.960;6.250;2023-02-13T06:39:51;26.38;;;10.90;;
39772;SDS011;25451;51.960;6.250;2023-02-13T06:42:16;28.57;;;11.43;;
39772;SDS011;25451;51.960;6.250;2023-02-13T06:44:42;29.05;;;11.18;;
39772;SDS011;25451;51.960;6.250;2023-02-13T06:47:08;26.30;;;10.57;;
39772;SDS011;25451;51.960;6.250;2023-02-13T06:49:33;30.13;;;11.30;;
39772;SDS011;25451;51.960;6.250;2023-02-13T06:51:58;26.70;;;10.40;;
39772;SDS011;25451;51.960;6.250;2023-02-13T06:54:24;27.73;;;11.27;;
39772;SDS011;25451;51.960;6.250;2023-02-13T06:56:49;26.03;;;11.53;;
39772;SDS011;25451;51.960;6.250;2023-02-13T06:59:14;25.77;;;11.00;;
39772;SDS011;25451;51.960;6.250;2023-02-13T07:01:39;28.83;;;11.27;;
39772;SDS011;25451;51.960;6.250;2023-02-13T07:04:05;26.87;;;11.63;;
39772;SDS011;25451;51.960;6.250;2023-02-13T07:06:30;24.70;;;10.80;;
39772;SDS011;25451;51.960;6.250;2023-02-13T07:08:55;25.80;;;10.63;;
39772;SDS011;25451;51.960;6.250;2023-02-13T07:11:22;26.02;;;10.65;;
39772;SDS011;25451;51.960;6.250;2023-02-13T07:13:48;26.98;;;11.15;;
39772;SDS011;25451;51.960;6.250;2023-02-13T07:16:13;26.38;;;11.13;;
39772;SDS011;25451;51.960;6.250;2023-02-13T07:18:39;23.73;;;10.57;;
39772;SDS011;25451;51.960;6.250;2023-02-13T07:21:04;26.40;;;11.30;;
39772;SDS011;25451;51.960;6.250;2023-02-13T07:23:30;29.30;;;10.50;;
39772;SDS011;25451;51.960;6.250;2023-02-13T07:25:57;27.97;;;10.77;;
39772;SDS011;25451;51.960;6.250;2023-02-13T07:28:24;21.83;;;9.73;;
39772;SDS011;25451;51.960;6.250;2023-02-13T07:30:49;27.30;;;10.83;;
39772;SDS011;25451;51.960;6.250;2023-02-13T07:33:14;27.23;;;11.03;;
39772;SDS011;25451;51.960;6.250;2023-02-13T07:35:44;28.23;;;11.43;;
39772;SDS011;25451;51.960;6.250;2023-02-13T07:38:10;27.23;;;10.77;;
39772;SDS011;25451;51.960;6.250;2023-02-13T07:40:36;25.40;;;10.83;;
39772;SDS011;25451;51.960;6.250;2023-02-13T07:43:01;23.63;;;10.33;;
39772;SDS011;25451;51.960;6.250;2023-02-13T07:45:26;27.02;;;10.95;;
39772;SDS011;25451;51.960;6.250;2023-02-13T07:47:53;27.83;;;11.63;;
39772;SDS011;25451;51.960;6.250;2023-02-13T07:50:20;28.30;;;10.97;;
39772;SDS011;25451;51.960;6.250;2023-02-13T07:52:51;27.23;;;11.20;;
39772;SDS011;25451;51.960;6.250;2023-02-13T07:55:20;26.85;;;11.18;;
39772;SDS011;25451;51.960;6.250;2023-02-13T07:57:45;26.25;;;10.95;;
39772;SDS011;25451;51.960;6.250;2023-02-13T08:00:11;25.83;;;10.87;;
39772;SDS011;25451;51.960;6.250;2023-02-13T08:02:36;26.73;;;10.93;;
39772;SDS011;25451;51.960;6.250;2023-02-13T08:05:02;28.80;;;11.40;;
39772;SDS011;25451;51.960;6.250;2023-02-13T08:07:27;28.38;;;11.07;;
39772;SDS011;25451;51.960;6.250;2023-02-13T08:09:52;23.80;;;10.47;;
39772;SDS011;25451;51.960;6.250;2023-02-13T08:12:36;23.80;;;10.43;;
39772;SDS011;25451;51.960;6.250;2023-02-13T08:15:02;23.97;;;10.37;;
39772;SDS011;25451;51.960;6.250;2023-02-13T08:17:28;26.10;;;10.98;;
39772;SDS011;25451;51.960;6.250;2023-02-13T08:19:53;24.67;;;11.00;;
39772;SDS011;25451;51.960;6.250;2023-02-13T08:22:19;24.50;;;10.97;;
39772;SDS011;25451;51.960;6.250;2023-02-13T08:24:44;24.10;;;10.53;;
39772;SDS011;25451;51.960;6.250;2023-02-13T08:27:11;23.70;;;10.60;;
39772;SDS011;25451;51.960;6.250;2023-02-13T08:29:37;26.73;;;10.93;;
39772;SDS011;25451;51.960;6.250;2023-02-13T08:32:03;25.67;;;10.83;;
39772;SDS011;25451;51.960;6.250;2023-02-13T08:34:28;25.95;;;10.45;;
39772;SDS011;25451;51.960;6.250;2023-02-13T08:36:53;26.50;;;11.40;;
39772;SDS011;25451;51.960;6.250;2023-02-13T08:39:19;27.57;;;11.60;;
39772;SDS011;25451;51.960;6.250;2023-02-13T08:41:44;25.37;;;10.67;;
39772;SDS011;25451;51.960;6.250;2023-02-13T08:44:09;27.10;;;10.90;;
39772;SDS011;25451;51.960;6.250;2023-02-13T08:46:35;27.47;;;11.37;;
39772;SDS011;25451;51.960;6.250;2023-02-13T08:49:00;23.30;;;10.33;;
39772;SDS011;25451;51.960;6.250;2023-02-13T08:51:25;33.10;;;11.63;;
39772;SDS011;25451;51.960;6.250;2023-02-13T08:53:51;25.17;;;10.57;;
39772;SDS011;25451;51.960;6.250;2023-02-13T08:56:16;26.67;;;10.93;;
39772;SDS011;25451;51.960;6.250;2023-02-13T08:58:42;28.00;;;10.87;;
39772;SDS011;25451;51.960;6.250;2023-02-13T09:01:07;25.00;;;10.30;;
39772;SDS011;25451;51.960;6.250;2023-02-13T09:03:33;29.80;;;10.75;;
39772;SDS011;25451;51.960;6.250;2023-02-13T09:06:00;27.40;;;10.90;;
39772;SDS011;25451;51.960;6.250;2023-02-13T09:08:26;27.00;;;11.32;;
39772;SDS011;25451;51.960;6.250;2023-02-13T09:10:58;30.37;;;10.77;;
39772;SDS011;25451;51.960;6.250;2023-02-13T09:13:26;25.67;;;10.30;;
39772;SDS011;25451;51.960;6.250;2023-02-13T09:15:52;25.42;;;10.70;;
39772;SDS011;25451;51.960;6.250;2023-02-13T09:18:17;25.53;;;10.60;;
39772;SDS011;25451;51.960;6.250;2023-02-13T09:20:43;28.70;;;10.97;;
39772;SDS011;25451;51.960;6.250;2023-02-13T09:23:08;26.77;;;10.30;;
39772;SDS011;25451;51.960;6.250;2023-02-13T09:25:33;25.67;;;10.38;;
39772;SDS011;25451;51.960;6.250;2023-02-13T09:27:59;27.47;;;10.97;;
39772;SDS011;25451;51.960;6.250;2023-02-13T09:30:24;23.73;;;10.03;;
39772;SDS011;25451;51.960;6.250;2023-02-13T09:32:53;23.07;;;10.50;;
39772;SDS011;25451;51.960;6.250;2023-02-13T09:35:19;26.05;;;10.55;;
39772;SDS011;25451;51.960;6.250;2023-02-13T09:37:46;26.88;;;10.05;;
39772;SDS011;25451;51.960;6.250;2023-02-13T09:40:15;25.63;;;10.53;;
39772;SDS011;25451;51.960;6.250;2023-02-13T09:42:44;26.42;;;10.80;;
39772;SDS011;25451;51.960;6.250;2023-02-13T09:45:11;26.08;;;10.32;;
39772;SDS011;25451;51.960;6.250;2023-02-13T09:47:40;24.42;;;10.32;;
39772;SDS011;25451;51.960;6.250;2023-02-13T09:50:10;24.38;;;9.75;;
39772;SDS011;25451;51.960;6.250;2023-02-13T09:52:42;25.25;;;9.45;;
39772;SDS011;25451;51.960;6.250;2023-02-13T09:55:13;23.13;;;9.68;;
39772;SDS011;25451;51.960;6.250;2023-02-13T09:57:52;24.42;;;9.68;;
39772;SDS011;25451;51.960;6.250;2023-02-13T10:00:31;21.17;;;8.93;;
39772;SDS011;25451;51.960;6.250;2023-02-13T10:03:23;24.98;;;10.07;;
39772;SDS011;25451;51.960;6.250;2023-02-13T10:06:05;21.42;;;9.00;;
39772;SDS011;25451;51.960;6.250;2023-02-13T10:08:43;21.08;;;8.95;;
39772;SDS011;25451;51.960;6.250;2023-02-13T10:22:04;20.83;;;9.30;;
39772;SDS011;25451;51.960;6.250;2023-02-13T10:24:40;21.02;;;8.98;;
39772;SDS011;25451;51.960;6.250;2023-02-13T10:27:24;21.15;;;9.07;;
39772;SDS011;25451;51.960;6.250;2023-02-13T10:29:55;21.67;;;9.80;;
39772;SDS011;25451;51.960;6.250;2023-02-13T10:32:41;20.58;;;9.27;;
39772;SDS011;25451;51.960;6.250;2023-02-13T10:35:17;21.02;;;9.43;;
39772;SDS011;25451;51.960;6.250;2023-02-13T10:37:50;18.63;;;9.02;;
39772;SDS011;25451;51.960;6.250;2023-02-13T10:40:19;19.52;;;9.07;;
39772;SDS011;25451;51.960;6.250;2023-02-13T10:43:31;20.92;;;9.70;;
39772;SDS011;25451;51.960;6.250;2023-02-13T10:51:36;19.67;;;8.63;;
39772;SDS011;25451;51.960;6.250;2023-02-13T10:54:16;23.30;;;9.48;;
39772;SDS011;25451;51.960;6.250;2023-02-13T10:57:18;21.52;;;10.00;;
39772;SDS011;25451;51.960;6.250;2023-02-13T11:02:34;25.77;;;11.43;;
39772;SDS011;25451;51.960;6.250;2023-02-13T11:05:20;25.33;;;11.30;;
39772;SDS011;25451;51.960;6.250;2023-02-13T11:07:48;23.20;;;11.38;;
39772;SDS011;25451;51.960;6.250;2023-02-13T11:12:41;25.33;;;11.85;;
39772;SDS011;25451;51.960;6.250;2023-02-13T11:15:08;21.77;;;10.70;;
39772;SDS011;25451;51.960;6.250;2023-02-13T11:17:50;22.90;;;10.87;;
39772;SDS011;25451;51.960;6.250;2023-02-13T11:23:54;21.33;;;9.98;;
39772;SDS011;25451;51.960;6.250;2023-02-13T11:28:55;23.23;;;11.25;;
39772;SDS011;25451;51.960;6.250;2023-02-13T11:33:58;24.30;;;11.70;;
39772;SDS011;25451;51.960;6.250;2023-02-13T11:36:28;25.58;;;11.40;;
39772;SDS011;25451;51.960;6.250;2023-02-13T11:39:02;25.27;;;11.75;;
39772;SDS011;25451;51.960;6.250;2023-02-13T11:41:30;25.20;;;11.35;;
39772;SDS011;25451;51.960;6.250;2023-02-13T11:44:01;23.63;;;12.67;;
39772;SDS011;25451;51.960;6.250;2023-02-13T11:46:47;25.38;;;12.98;;
39772;SDS011;25451;51.960;6.250;2023-02-13T11:49:16;27.75;;;13.38;;
39772;SDS011;25451;51.960;6.250;2023-02-13T11:51:52;22.70;;;11.60;;
39772;SDS011;25451;51.960;6.250;2023-02-13T11:54:32;23.42;;;12.02;;
39772;SDS011;25451;51.960;6.250;2023-02-13T11:57:01;21.53;;;10.77;;
39772;SDS011;25451;51.960;6.250;2023-02-13T11:59:30;28.58;;;11.93;;
39772;SDS011;25451;51.960;6.250;2023-02-13T12:02:02;23.08;;;12.40;;
39772;SDS011;25451;51.960;6.250;2023-02-13T12:04:36;23.00;;;12.35;;
39772;SDS011;25451;51.960;6.250;2023-02-13T12:07:46;25.03;;;12.00;;
39772;SDS011;25451;51.960;6.250;2023-02-13T12:09:53;22.40;;;11.52;;
39772;SDS011;25451;51.960;6.250;2023-02-13T12:12:36;20.65;;;10.85;;
39772;SDS011;25451;51.960;6.250;2023-02-13T12:15:14;22.33;;;11.57;;
39772;SDS011;25451;51.960;6.250;2023-02-13T12:17:44;22.73;;;11.43;;
39772;SDS011;25451;51.960;6.250;2023-02-13T12:20:14;23.67;;;11.57;;
39772;SDS011;25451;51.960;6.250;2023-02-13T12:44:06;22.42;;;11.05;;
39772;SDS011;25451;51.960;6.250;2023-02-13T12:46:50;21.05;;;10.57;;
39772;SDS011;25451;51.960;6.250;2023-02-13T13:09:05;21.70;;;10.63;;
39772;SDS011;25451;51.960;6.250;2023-02-13T13:25:31;23.37;;;11.23;;
39772;SDS011;25451;51.960;6.250;2023-02-13T13:27:48;20.33;;;10.30;;
39772;SDS011;25451;51.960;6.250;2023-02-13T13:30:24;22.20;;;10.95;;
39772;SDS011;25451;51.960;6.250;2023-02-13T13:32:57;24.58;;;11.45;;
39772;SDS011;25451;51.960;6.250;2023-02-13T13:35:26;21.77;;;11.18;;
39772;SDS011;25451;51.960;6.250;2023-02-13T13:37:54;22.02;;;10.30;;
39772;SDS011;25451;51.960;6.250;2023-02-13T13:43:37;23.55;;;10.55;;
39772;SDS011;25451;51.960;6.250;2023-02-13T13:48:48;18.25;;;9.45;;
39772;SDS011;25451;51.960;6.250;2023-02-13T13:51:18;20.77;;;9.48;;
39772;SDS011;25451;51.960;6.250;2023-02-13T13:54:16;23.63;;;10.57;;
39772;SDS011;25451;51.960;6.250;2023-02-13T14:05:01;15.75;;;7.95;;
39772;SDS011;25451;51.960;6.250;2023-02-13T14:07:48;21.50;;;9.67;;
39772;SDS011;25451;51.960;6.250;2023-02-13T14:26:29;21.05;;;9.77;;
39772;SDS011;25451;51.960;6.250;2023-02-13T14:31:34;17.13;;;8.18;;
39772;SDS011;25451;51.960;6.250;2023-02-13T14:34:23;19.25;;;8.95;;
39772;SDS011;25451;51.960;6.250;2023-02-13T14:37:09;18.73;;;8.87;;
39772;SDS011;25451;51.960;6.250;2023-02-13T14:40:08;16.63;;;8.23;;
39772;SDS011;25451;51.960;6.250;2023-02-13T14:42:35;18.50;;;9.30;;
39772;SDS011;25451;51.960;6.250;2023-02-13T14:45:02;17.33;;;8.85;;
39772;SDS011;25451;51.960;6.250;2023-02-13T14:47:36;18.65;;;8.95;;
39772;SDS011;25451;51.960;6.250;2023-02-13T14:50:07;16.77;;;7.90;;
39772;SDS011;25451;51.960;6.250;2023-02-13T14:52:42;17.85;;;7.63;;
39772;SDS011;25451;51.960;6.250;2023-02-13T14:55:14;17.33;;;7.97;;
39772;SDS011;25451;51.960;6.250;2023-02-13T14:57:58;18.02;;;8.75;;
39772;SDS011;25451;51.960;6.250;2023-02-13T15:03:28;17.50;;;8.07;;
39772;SDS011;25451;51.960;6.250;2023-02-13T15:06:00;16.73;;;8.05;;
39772;SDS011;25451;51.960;6.250;2023-02-13T15:08:35;19.00;;;8.35;;
39772;SDS011;25451;51.960;6.250;2023-02-13T15:11:09;16.95;;;8.10;;
39772;SDS011;25451;51.960;6.250;2023-02-13T15:13:54;17.70;;;7.90;;
39772;SDS011;25451;51.960;6.250;2023-02-13T15:16:19;16.57;;;7.70;;
39772;SDS011;25451;51.960;6.250;2023-02-13T15:18:48;16.47;;;8.00;;
39772;SDS011;25451;51.960;6.250;2023-02-13T15:21:20;18.02;;;8.32;;
39772;SDS011;25451;51.960;6.250;2023-02-13T15:23:48;17.42;;;8.20;;
39772;SDS011;25451;51.960;6.250;2023-02-13T15:26:19;15.38;;;7.75;;
39772;SDS011;25451;51.960;6.250;2023-02-13T15:31:43;16.13;;;7.65;;
39772;SDS011;25451;51.960;6.250;2023-02-13T15:36:58;18.13;;;8.18;;
39772;SDS011;25451;51.960;6.250;2023-02-13T15:39:25;17.63;;;8.02;;
39772;SDS011;25451;51.960;6.250;2023-02-13T15:41:56;16.73;;;7.95;;
39772;SDS011;25451;51.960;6.250;2023-02-13T15:44:30;16.07;;;7.67;;
39772;SDS011;25451;51.960;6.250;2023-02-13T15:47:05;16.83;;;7.90;;
39772;SDS011;25451;51.960;6.250;2023-02-13T15:49:35;14.60;;;7.15;;
39772;SDS011;25451;51.960;6.250;2023-02-13T15:52:07;16.95;;;7.57;;
39772;SDS011;25451;51.960;6.250;2023-02-13T15:54:45;19.58;;;8.63;;
39772;SDS011;25451;51.960;6.250;2023-02-13T15:57:18;15.70;;;6.77;;
39772;SDS011;25451;51.960;6.250;2023-02-13T15:59:45;19.02;;;8.80;;
39772;SDS011;25451;51.960;6.250;2023-02-13T16:02:15;20.98;;;9.27;;
39772;SDS011;25451;51.960;6.250;2023-02-13T16:04:44;21.33;;;9.73;;
39772;SDS011;25451;51.960;6.250;2023-02-13T16:07:10;20.25;;;9.68;;
39772;SDS011;25451;51.960;6.250;2023-02-13T16:09:37;19.27;;;8.98;;
39772;SDS011;25451;51.960;6.250;2023-02-13T16:12:45;19.50;;;9.30;;
39772;SDS011;25451;51.960;6.250;2023-02-13T16:14:59;19.30;;;8.70;;
39772;SDS011;25451;51.960;6.250;2023-02-13T16:25:26;17.70;;;8.67;;
39772;SDS011;25451;51.960;6.250;2023-02-13T16:27:58;18.63;;;9.00;;
39772;SDS011;25451;51.960;6.250;2023-02-13T16:35:39;18.95;;;8.48;;
39772;SDS011;25451;51.960;6.250;2023-02-13T16:40:56;19.05;;;8.80;;
39772;SDS011;25451;51.960;6.250;2023-02-13T16:43:38;16.90;;;7.87;;
39772;SDS011;25451;51.960;6.250;2023-02-13T16:46:24;18.23;;;8.45;;
39772;SDS011;25451;51.960;6.250;2023-02-13T16:51:29;17.17;;;8.52;;
39772;SDS011;25451;51.960;6.250;2023-02-13T16:53:58;17.83;;;8.60;;
39772;SDS011;25451;51.960;6.250;2023-02-13T16:56:46;18.70;;;8.73;;
39772;SDS011;25451;51.960;6.250;2023-02-13T17:01:41;18.67;;;8.15;;
39772;SDS011;25451;51.960;6.250;2023-02-13T17:04:12;18.90;;;8.67;;
39772;SDS011;25451;51.960;6.250;2023-02-13T17:06:45;17.00;;;8.35;;
39772;SDS011;25451;51.960;6.250;2023-02-13T17:09:10;18.43;;;8.93;;
39772;SDS011;25451;51.960;6.250;2023-02-13T17:11:35;20.07;;;9.37;;
39772;SDS011;25451;51.960;6.250;2023-02-13T17:14:01;19.20;;;9.33;;
39772;SDS011;25451;51.960;6.250;2023-02-13T17:16:26;20.33;;;9.40;;
39772;SDS011;25451;51.960;6.250;2023-02-13T17:18:51;19.57;;;9.60;;
39772;SDS011;25451;51.960;6.250;2023-02-13T17:21:16;23.07;;;10.10;;
39772;SDS011;25451;51.960;6.250;2023-02-13T17:23:42;20.57;;;9.73;;
39772;SDS011;25451;51.960;6.250;2023-02-13T17:26:07;20.67;;;9.93;;
39772;SDS011;25451;51.960;6.250;2023-02-13T17:28:32;20.63;;;10.03;;
39772;SDS011;25451;51.960;6.250;2023-02-13T17:30:57;23.53;;;10.90;;
39772;SDS011;25451;51.960;6.250;2023-02-13T17:35:52;24.00;;;10.43;;
39772;SDS011;25451;51.960;6.250;2023-02-13T17:38:18;22.00;;;10.23;;
39772;SDS011;25451;51.960;6.250;2023-02-13T17:40:44;23.40;;;10.63;;
39772;SDS011;25451;51.960;6.250;2023-02-13T17:43:10;23.70;;;10.33;;
39772;SDS011;25451;51.960;6.250;2023-02-13T17:45:36;22.55;;;10.40;;
39772;SDS011;25451;51.960;6.250;2023-02-13T17:48:02;22.80;;;10.13;;
39772;SDS011;25451;51.960;6.250;2023-02-13T17:50:29;21.15;;;9.82;;